Time,TemperatureF,DewpointF,PressureIn,WindDirection,WindDirectionDegrees,WindSpeedMPH,WindSpeedGustMPH,Humidity,HourlyPrecipIn,Conditions,Clouds,dailyrainin,SolarRadiationWatts/m^2,SoftwareType,DateUTC
2015-07-29 00:08:00,67.6,65.2,29.86,West,271,0.0,0.0,92,0.00,,,0.00,0,Wunderground v.1.15,2015-07-29 07:08:00,
2015-07-29 00:28:00,67.5,65.4,29.86,West,271,0.0,0.0,93,0.00,,,0.00,0,Wunderground v.1.15,2015-07-29 07:28:00,
2015-07-29 00:38:00,67.5,65.4,29.86,West,272,0.0,0.0,93,0.00,,,0.00,0,Wunderground v.1.15,2015-07-29 07:38:00,
2015-07-29 00:48:00,67.6,65.5,29.86,West,272,0.0,0.0,93,0.00,,,0.00,0,Wunderground v.1.15,2015-07-29 07:48:00,
2015-07-29 01:08:00,67.4,65.3,29.85,North,360,1.0,1.0,93,0.00,,,0.00,0,Wunderground v.1.15,2015-07-29 08:08:00,
2015-07-29 01:18:00,67.3,65.2,29.85,North,360,0.0,0.0,93,0.00,,,0.00,0,Wunderground v.1.15,2015-07-29 08:18:00,
2015-07-29 01:28:00,67.4,65.3,29.85,NW,325,0.0,0.0,93,0.00,,,0.00,0,Wunderground v.1.15,2015-07-29 08:28:00,
2015-07-29 01:38:00,67.2,65.1,29.85,NW,323,0.0,0.0,93,0.00,,,0.00,0,Wunderground v.1.15,2015-07-29 08:38:00,
2015-07-29 01:48:00,67.0,64.9,29.85,NW,323,0.0,0.0,93,0.00,,,0.00,0,Wunderground v.1.15,2015-07-29 08:48:00,
2015-07-29 01:58:00,67.0,65.2,29.85,North,360,0.0,0.0,94,0.00,,,0.00,0,Wunderground v.1.15,2015-07-29 08:58:00,
2015-07-29 02:08:00,67.0,65.2,29.85,NNW,348,0.0,0.0,94,0.00,,,0.00,0,Wunderground v.1.15,2015-07-29 09:08:00,
2015-07-29 02:18:00,67.0,64.9,29.84,North,360,0.0,0.0,93,0.00,,,0.00,0,Wunderground v.1.15,2015-07-29 09:18:00,
2015-07-29 02:28:00,67.0,64.9,29.84,North,360,0.0,0.0,93,0.00,,,0.00,0,Wunderground v.1.15,2015-07-29 09:28:00,
2015-07-29 02:38:00,67.0,64.9,29.84,North,360,1.0,1.0,93,0.00,,,0.00,0,Wunderground v.1.15,2015-07-29 09:38:00,
2015-07-29 02:48:00,67.0,64.9,29.83,North,360,0.0,0.0,93,0.00,,,0.00,0,Wunderground v.1.15,2015-07-29 09:48:00,
2015-07-29 02:58:00,67.0,64.9,29.83,North,360,0.0,0.0,93,0.00,,,0.00,0,Wunderground v.1.15,2015-07-29 09:58:00,
2015-07-29 03:08:00,67.1,65.0,29.83,NNW,335,0.0,0.0,93,0.00,,,0.00,0,Wunderground v.1.15,2015-07-29 10:08:00,
2015-07-29 03:18:00,67.2,65.1,29.83,NNW,341,0.0,0.0,93,0.00,,,0.00,0,Wunderground v.1.15,2015-07-29 10:18:00,
2015-07-29 03:28:00,67.3,65.2,29.83,NNW,342,0.0,0.0,93,0.00,,,0.00,0,Wunderground v.1.15,2015-07-29 10:28:00,
2015-07-29 03:38:00,67.4,65.3,29.83,NNW,339,0.0,0.0,93,0.00,,,0.00,0,Wunderground v.1.15,2015-07-29 10:38:00,
2015-07-29 03:48:00,67.4,65.3,29.83,NNW,339,0.0,0.0,93,0.00,,,0.00,0,Wunderground v.1.15,2015-07-29 10:48:00,
2015-07-29 03:58:00,67.5,65.1,29.84,NNW,339,0.0,0.0,92,0.00,,,0.00,0,Wunderground v.1.15,2015-07-29 10:58:00,
2015-07-29 04:08:00,67.5,65.1,29.84,NNW,339,0.0,0.0,92,0.00,,,0.00,0,Wunderground v.1.15,2015-07-29 11:08:00,
2015-07-29 04:18:00,67.6,65.2,29.84,West,276,0.0,0.0,92,0.00,,,0.00,0,Wunderground v.1.15,2015-07-29 11:18:00,
2015-07-29 04:28:00,67.5,65.1,29.84,West,275,0.0,0.0,92,0.00,,,0.00,0,Wunderground v.1.15,2015-07-29 11:28:00,
2015-07-29 04:38:00,67.4,65.0,29.84,West,275,0.0,0.0,92,0.00,,,0.00,0,Wunderground v.1.15,2015-07-29 11:38:00,
2015-07-29 04:48:00,67.4,65.0,29.83,West,275,0.0,0.0,92,0.00,,,0.00,0,Wunderground v.1.15,2015-07-29 11:48:00,
2015-07-29 04:58:00,67.4,65.0,29.83,West,275,0.0,0.0,92,0.00,,,0.00,0,Wunderground v.1.15,2015-07-29 11:58:00,
2015-07-29 05:08:00,67.4,65.0,29.83,West,275,0.0,0.0,92,0.00,,,0.00,0,Wunderground v.1.15,2015-07-29 12:08:00,
2015-07-29 05:18:00,67.5,65.1,29.84,West,275,0.0,0.0,92,0.00,,,0.00,0,Wunderground v.1.15,2015-07-29 12:18:00,
2015-07-29 05:28:00,67.4,65.0,29.84,West,275,0.0,0.0,92,0.00,,,0.00,0,Wunderground v.1.15,2015-07-29 12:28:00,
2015-07-29 05:38:00,67.4,65.0,29.84,West,275,0.0,0.0,92,0.00,,,0.00,0,Wunderground v.1.15,2015-07-29 12:38:00,
2015-07-29 05:48:00,67.4,65.0,29.85,West,275,0.0,0.0,92,0.00,,,0.00,0,Wunderground v.1.15,2015-07-29 12:48:00,
2015-07-29 05:58:00,67.4,65.0,29.85,West,275,0.0,0.0,92,0.00,,,0.00,0,Wunderground v.1.15,2015-07-29 12:58:00,
2015-07-29 06:18:00,67.5,65.1,29.84,WNW,296,1.0,1.0,92,0.00,,,0.00,5,Wunderground v.1.15,2015-07-29 13:18:00,
2015-07-29 06:28:00,67.6,65.2,29.85,WNW,296,1.0,1.0,92,0.00,,,0.00,9,Wunderground v.1.15,2015-07-29 13:28:00,
2015-07-29 06:48:00,67.5,65.1,29.85,WNW,298,0.0,4.0,92,0.00,,,0.00,18,Wunderground v.1.15,2015-07-29 13:48:00,
2015-07-29 06:58:00,67.5,65.1,29.86,WNW,298,0.0,0.0,92,0.00,,,0.00,19,Wunderground v.1.15,2015-07-29 13:58:00,
2015-07-29 07:18:00,67.6,65.2,29.86,WNW,298,0.0,0.0,92,0.00,,,0.00,32,Wunderground v.1.15,2015-07-29 14:18:00,
2015-07-29 07:28:00,67.5,65.1,29.86,WNW,298,0.0,0.0,92,0.00,,,0.00,39,Wunderground v.1.15,2015-07-29 14:28:00,
2015-07-29 07:38:00,67.5,64.8,29.86,WNW,298,0.0,0.0,91,0.00,,,0.00,53,Wunderground v.1.15,2015-07-29 14:38:00,
2015-07-29 07:58:00,67.6,64.9,29.88,WNW,298,0.0,3.0,91,0.00,,,0.00,63,Wunderground v.1.15,2015-07-29 14:58:00,
2015-07-29 08:08:00,67.7,65.0,29.88,WNW,301,0.0,0.0,91,0.00,,,0.00,90,Wunderground v.1.15,2015-07-29 15:08:00,
2015-07-29 08:18:00,68.0,65.0,29.88,WNW,301,0.0,0.0,90,0.00,,,0.00,137,Wunderground v.1.15,2015-07-29 15:18:00,
2015-07-29 08:28:00,68.3,65.3,29.88,WNW,301,0.0,0.0,90,0.00,,,0.00,158,Wunderground v.1.15,2015-07-29 15:28:00,
2015-07-29 08:38:00,68.7,65.3,29.88,WNW,301,0.0,0.0,89,0.00,,,0.00,146,Wunderground v.1.15,2015-07-29 15:38:00,
2015-07-29 08:48:00,68.9,65.2,29.88,WNW,301,0.0,4.0,88,0.00,,,0.00,174,Wunderground v.1.15,2015-07-29 15:48:00,
2015-07-29 08:58:00,69.2,65.5,29.88,WNW,301,0.0,0.0,88,0.00,,,0.00,199,Wunderground v.1.15,2015-07-29 15:58:00,
2015-07-29 09:07:00,69.3,65.3,29.88,WNW,301,0.0,0.0,87,0.00,,,0.00,223,Wunderground v.1.15,2015-07-29 16:07:00,
2015-07-29 09:18:00,69.4,65.4,29.88,WNW,292,0.0,4.0,87,0.00,,,0.00,229,Wunderground v.1.15,2015-07-29 16:18:00,
2015-07-29 09:28:00,69.5,65.5,29.88,West,269,1.0,1.0,87,0.00,,,0.00,264,Wunderground v.1.15,2015-07-29 16:28:00,
2015-07-29 09:38:00,69.6,65.2,29.88,WSW,248,0.0,0.0,86,0.00,,,0.00,278,Wunderground v.1.15,2015-07-29 16:38:00,
2015-07-29 09:48:00,70.2,65.5,29.88,SW,220,0.0,0.0,85,0.00,,,0.00,399,Wunderground v.1.15,2015-07-29 16:48:00,
2015-07-29 09:58:00,70.6,65.5,29.89,SW,222,0.0,5.0,84,0.00,,,0.00,369,Wunderground v.1.15,2015-07-29 16:58:00,
2015-07-29 10:28:00,72.6,66.1,29.89,NNW,348,1.0,1.0,80,0.00,,,0.00,364,Wunderground v.1.15,2015-07-29 17:28:00,
2015-07-29 10:38:00,74.2,67.3,29.89,NW,321,0.0,0.0,79,0.00,,,0.00,904,Wunderground v.1.15,2015-07-29 17:38:00,
2015-07-29 10:48:00,73.7,66.4,29.89,West,280,2.0,8.0,78,0.00,,,0.00,594,Wunderground v.1.15,2015-07-29 17:48:00,
2015-07-29 10:58:00,72.5,66.0,29.89,WSW,248,4.0,9.0,80,0.00,,,0.00,788,Wunderground v.1.15,2015-07-29 17:58:00,
2015-07-29 11:08:00,72.7,65.8,29.89,WSW,244,2.0,2.0,79,0.00,,,0.00,854,Wunderground v.1.15,2015-07-29 18:08:00,
2015-07-29 11:38:00,73.5,65.8,29.90,WSW,255,3.0,3.0,77,0.00,,,0.00,837,Wunderground v.1.15,2015-07-29 18:38:00,
2015-07-29 11:48:00,73.3,66.0,29.90,West,277,4.0,7.0,78,0.00,,,0.00,847,Wunderground v.1.15,2015-07-29 18:48:00,
2015-07-29 11:58:00,73.9,66.6,29.90,WSW,243,3.0,3.0,78,0.00,,,0.00,861,Wunderground v.1.15,2015-07-29 18:58:00,
2015-07-29 12:08:00,73.5,66.2,29.90,West,267,4.0,12.0,78,0.00,,,0.00,872,Wunderground v.1.15,2015-07-29 19:08:00,
2015-07-29 12:18:00,74.1,66.0,29.89,WNW,290,4.0,11.0,76,0.00,,,0.00,879,Wunderground v.1.15,2015-07-29 19:18:00,
2015-07-29 12:28:00,73.8,66.1,29.89,West,279,5.0,5.0,77,0.00,,,0.00,889,Wunderground v.1.15,2015-07-29 19:28:00,
2015-07-29 12:38:00,73.6,65.9,29.89,SW,225,4.0,7.0,77,0.00,,,0.00,891,Wunderground v.1.15,2015-07-29 19:38:00,
2015-07-29 12:48:00,73.8,66.1,29.89,West,272,5.0,5.0,77,0.00,,,0.00,895,Wunderground v.1.15,2015-07-29 19:48:00,
2015-07-29 12:58:00,73.5,65.8,29.89,West,270,5.0,5.0,77,0.00,,,0.00,896,Wunderground v.1.15,2015-07-29 19:58:00,
2015-07-29 13:08:00,73.8,65.8,29.89,West,273,5.0,10.0,76,0.00,,,0.00,900,Wunderground v.1.15,2015-07-29 20:08:00,
2015-07-29 13:18:00,73.3,65.7,29.89,NW,325,7.0,9.0,77,0.00,,,0.00,893,Wunderground v.1.15,2015-07-29 20:18:00,
2015-07-29 13:28:00,72.9,65.6,29.89,WSW,250,6.0,9.0,78,0.00,,,0.00,895,Wunderground v.1.15,2015-07-29 20:28:00,
2015-07-29 13:38:00,73.7,66.4,29.89,West,276,5.0,5.0,78,0.00,,,0.00,889,Wunderground v.1.15,2015-07-29 20:38:00,
2015-07-29 13:48:00,73.1,65.5,29.89,West,268,6.0,6.0,77,0.00,,,0.00,882,Wunderground v.1.15,2015-07-29 20:48:00,
2015-07-29 13:58:00,73.2,65.6,29.89,West,259,5.0,12.0,77,0.00,,,0.00,881,Wunderground v.1.15,2015-07-29 20:58:00,
2015-07-29 14:08:00,73.4,66.1,29.89,WSW,244,6.0,15.0,78,0.00,,,0.00,870,Wunderground v.1.15,2015-07-29 21:08:00,
2015-07-29 14:18:00,73.4,66.1,29.88,West,275,7.0,17.0,78,0.00,,,0.00,858,Wunderground v.1.15,2015-07-29 21:18:00,
2015-07-29 14:28:00,73.2,65.9,29.88,WSW,250,8.0,8.0,78,0.00,,,0.00,856,Wunderground v.1.15,2015-07-29 21:28:00,